createdAt,value
2022-08-28T00:03:50.589Z,91.81
2022-08-28T00:32:36.424Z,92.42
2022-08-28T01:01:27.787Z,92.71
2022-08-28T01:30:16.630Z,93.87
2022-08-28T01:59:01.415Z,94.27
2022-08-28T02:28:00.420Z,96.95
2022-08-28T02:56:51.025Z,98.76
2022-08-28T03:25:41.174Z,97.48
2022-08-28T03:54:00.189Z,100
2022-08-28T04:22:19.808Z,99.37
2022-08-28T04:50:41.882Z,98.4
2022-08-28T05:19:03.862Z,94.6
2022-08-28T05:47:52.086Z,80.97
2022-08-28T06:16:46.023Z,68.89
2022-08-28T06:45:18.185Z,73.89
2022-08-28T07:13:46.278Z,58.19
2022-08-28T07:41:46.232Z,65.66
2022-08-28T08:10:02.996Z,69.39
2022-08-28T08:38:22.657Z,64.26
2022-08-28T09:06:57.106Z,63.32
2022-08-28T09:35:21.280Z,65.33
2022-08-28T10:03:52.576Z,62.75
2022-08-28T10:32:12.601Z,63.37
2022-08-28T11:00:36.082Z,62.26
2022-08-28T11:29:04.060Z,61.33
2022-08-28T11:57:30.301Z,60.28
2022-08-28T12:25:54.572Z,59.71
2022-08-28T12:54:18.841Z,57.03
2022-08-28T13:23:20.826Z,56.79
2022-08-28T13:52:13.803Z,56.31
2022-08-28T14:20:34.783Z,54.95
2022-08-28T14:48:59.147Z,53.62
2022-08-28T15:17:35.170Z,52.52
2022-08-28T15:45:44.438Z,52.04
2022-08-28T16:14:09.591Z,51.1
2022-08-28T16:42:33.240Z,50.14
2022-08-28T17:10:51.525Z,49.85
2022-08-28T17:39:13.412Z,50.43
2022-08-28T18:07:36.603Z,51.06
2022-08-28T18:36:02.263Z,52.2
2022-08-28T19:04:13.434Z,55.66
2022-08-28T19:32:46.092Z,53.43
2022-08-28T20:01:13.863Z,53.12
2022-08-28T20:30:11.722Z,52.09
2022-08-28T20:58:34.176Z,52.86
2022-08-28T21:27:31.557Z,53.15
2022-08-28T21:56:25.601Z,54.14
2022-08-28T22:25:21.691Z,55.61
2022-08-28T22:54:14.573Z,59.51
2022-08-28T23:23:17.432Z,59.31
2022-08-28T23:51:52.375Z,69.96
